Terminal Aerodrome Forecast
Issued by NWS Paducah, KY

Home | Current Version | Previous Version | Text Only | Print | Product List | Glossary On
Versions: 1 2 3 4 5 6 7 8 9 10 11 12 13 14 15 16 17 18 19 20 21 22
000
FTUS43 KPAH 042340
TAFPAH
TAF
KPAH 042340Z 0500/0524 09003KT P6SM FEW035 BKN250
     FM050400 00000KT 4SM BR BKN250
     FM050700 00000KT 2SM BR SCT005
      TEMPO 0509/0513 1SM BR SCT002
     FM051500 19004KT P6SM SCT035=

USA.gov is the U.S. government's official web portal to all federal, state and local government web resources and services.